createdAt,value
2023-03-22T00:00:15.153Z,6.40
2023-03-22T00:02:44.273Z,8.13
2023-03-22T00:05:12.468Z,6.57
2023-03-22T00:07:43.420Z,8.38
2023-03-22T00:10:12.387Z,6.18
2023-03-22T00:12:40.890Z,7.30
2023-03-22T00:15:12.270Z,6.30
2023-03-22T00:17:41.943Z,6.68
2023-03-22T00:20:11.551Z,7.22
2023-03-22T00:22:40.510Z,7.22
2023-03-22T00:25:09.440Z,7.45
2023-03-22T00:27:38.034Z,7.28
2023-03-22T00:30:10.191Z,6.63
2023-03-22T00:32:40.379Z,7.82
2023-03-22T00:35:09.542Z,8.15
2023-03-22T00:37:39.504Z,6.63
2023-03-22T00:40:13.865Z,8.20
2023-03-22T00:42:43.203Z,7.35
2023-03-22T00:45:13.631Z,7.93
2023-03-22T00:47:43.623Z,8.05
2023-03-22T00:50:12.233Z,6.75
2023-03-22T00:52:40.482Z,8.00
2023-03-22T00:55:09.310Z,7.38
2023-03-22T00:57:37.768Z,6.88
2023-03-22T01:00:12.872Z,7.38
2023-03-22T01:02:44.430Z,7.82
2023-03-22T01:05:21.812Z,7.30
2023-03-22T01:07:51.631Z,7.75
2023-03-22T01:10:20.370Z,7.40
2023-03-22T01:12:49.325Z,7.43
2023-03-22T01:15:18.033Z,7.78
2023-03-22T01:17:47.675Z,7.15
2023-03-22T01:20:16.425Z,7.85
2023-03-22T01:22:45.402Z,7.28
2023-03-22T01:25:14.121Z,7.85
2023-03-22T01:27:42.654Z,7.38
2023-03-22T01:30:11.965Z,6.85
2023-03-22T01:32:40.952Z,6.65
2023-03-22T01:35:11.551Z,6.43
2023-03-22T01:37:41.574Z,6.00
2023-03-22T01:40:13.369Z,5.30
2023-03-22T01:42:42.280Z,5.05
2023-03-22T01:45:38.345Z,5.90
2023-03-22T01:48:16.383Z,5.22
2023-03-22T01:50:56.086Z,6.05
2023-03-22T01:53:26.750Z,5.88
2023-03-22T01:55:58.746Z,5.75
2023-03-22T01:58:35.243Z,6.22
2023-03-22T02:01:06.806Z,4.85
2023-03-22T02:03:54.282Z,5.38
2023-03-22T02:06:26.934Z,5.70
2023-03-22T02:09:02.820Z,5.85
2023-03-22T02:11:35.441Z,4.78
2023-03-22T02:14:36.185Z,6.13
2023-03-22T02:17:44.514Z,5.07
2023-03-22T02:20:46.958Z,6.03
2023-03-22T02:24:14.939Z,6.65
2023-03-22T02:27:09.159Z,4.60
2023-03-22T02:29:45.120Z,5.75
2023-03-22T02:33:05.112Z,6.13
2023-03-22T02:35:56.367Z,5.60
2023-03-22T02:41:28.912Z,5.07
2023-03-22T02:44:09.839Z,4.50
2023-03-22T02:46:45.916Z,5.22
2023-03-22T02:49:22.572Z,5.55
2023-03-22T02:52:00.690Z,5.50
2023-03-22T02:54:36.363Z,5.57
2023-03-22T02:57:11.079Z,5.28
2023-03-22T03:02:17.331Z,5.13
2023-03-22T03:04:50.522Z,5.45
2023-03-22T03:07:23.748Z,6.10
2023-03-22T03:09:52.816Z,4.95
2023-03-22T03:12:26.206Z,5.82
2023-03-22T03:14:56.881Z,5.53
2023-03-22T03:17:39.868Z,5.47
2023-03-22T03:20:29.916Z,4.95
2023-03-22T03:23:15.173Z,5.20
2023-03-22T03:25:58.330Z,4.95
2023-03-22T03:28:39.113Z,4.68
2023-03-22T03:31:25.755Z,4.18
2023-03-22T03:34:05.514Z,3.90
2023-03-22T03:36:38.642Z,5.13
2023-03-22T03:39:13.022Z,5.10
2023-03-22T03:41:43.880Z,4.57
2023-03-22T03:44:14.910Z,4.47
2023-03-22T03:46:47.556Z,5.67
2023-03-22T03:49:18.082Z,5.07
2023-03-22T03:51:52.707Z,5.68
2023-03-22T03:56:50.855Z,3.75
2023-03-22T03:59:21.719Z,5.05
2023-03-22T04:01:52.677Z,5.43
2023-03-22T04:04:34.634Z,5.53
2023-03-22T04:07:06.660Z,5.55
2023-03-22T04:09:40.388Z,4.90
2023-03-22T04:12:32.117Z,4.93
2023-03-22T04:15:14.989Z,3.80
2023-03-22T04:17:46.501Z,4.50
2023-03-22T04:20:16.636Z,4.13
2023-03-22T04:22:46.785Z,4.20
2023-03-22T04:25:18.220Z,4.05
2023-03-22T04:28:00.565Z,4.38
2023-03-22T04:30:36.218Z,4.68
2023-03-22T04:33:07.789Z,4.13
2023-03-22T04:35:57.932Z,5.03
2023-03-22T04:38:33.581Z,3.83
2023-03-22T04:41:02.766Z,4.70
2023-03-22T04:43:39.299Z,4.55
2023-03-22T04:46:12.909Z,4.30
2023-03-22T04:48:48.890Z,4.72
2023-03-22T04:51:18.989Z,4.50
2023-03-22T04:54:05.212Z,4.28
2023-03-22T04:56:34.452Z,3.85
2023-03-22T04:59:05.397Z,4.45
2023-03-22T05:01:35.441Z,5.00
2023-03-22T05:04:12.377Z,4.20
2023-03-22T05:06:42.106Z,4.70
2023-03-22T05:09:18.235Z,5.43
2023-03-22T05:11:47.215Z,5.95
2023-03-22T05:14:29.536Z,5.28
2023-03-22T05:16:59.399Z,5.97
2023-03-22T05:19:28.127Z,5.30
2023-03-22T05:21:58.376Z,5.03
2023-03-22T05:24:38.907Z,4.85
2023-03-22T05:27:08.415Z,5.15
2023-03-22T05:29:37.212Z,4.95
2023-03-22T05:32:15.083Z,5.70
2023-03-22T05:34:45.402Z,5.45
2023-03-22T05:37:23.466Z,5.40
2023-03-22T05:39:55.604Z,6.07
2023-03-22T05:42:32.294Z,5.43
2023-03-22T05:45:02.617Z,5.95
2023-03-22T05:47:32.464Z,4.93
2023-03-22T05:50:05.282Z,5.40
2023-03-22T05:52:35.566Z,5.38
2023-03-22T05:55:20.771Z,5.18
2023-03-22T05:57:51.429Z,5.00
2023-03-22T06:00:21.833Z,5.30
2023-03-22T06:03:21.017Z,4.47
2023-03-22T06:05:56.640Z,4.63
2023-03-22T06:08:37.548Z,4.68
2023-03-22T06:11:07.432Z,5.30
2023-03-22T06:13:37.321Z,5.50
2023-03-22T06:16:07.434Z,4.97
2023-03-22T06:18:37.098Z,6.20
2023-03-22T06:23:39.512Z,4.50
2023-03-22T06:26:11.280Z,5.10
2023-03-22T06:28:40.348Z,5.57
2023-03-22T06:31:10.410Z,5.22
2023-03-22T06:33:56.641Z,5.68
2023-03-22T06:36:35.085Z,5.30
2023-03-22T06:39:10.411Z,5.45
2023-03-22T06:41:39.645Z,5.05
2023-03-22T06:44:08.364Z,4.07
2023-03-22T06:46:59.181Z,4.60
2023-03-22T06:49:51.452Z,3.67
2023-03-22T06:52:25.285Z,3.95
2023-03-22T06:54:54.183Z,3.72
2023-03-22T06:57:22.740Z,4.63
2023-03-22T06:59:51.372Z,4.38
2023-03-22T07:02:19.931Z,4.93
2023-03-22T07:05:10.702Z,4.70
2023-03-22T07:07:39.689Z,5.10
2023-03-22T07:10:09.564Z,5.18
2023-03-22T07:12:38.433Z,5.05
2023-03-22T07:15:12.873Z,4.82
2023-03-22T07:17:50.824Z,4.60
2023-03-22T07:20:20.702Z,11.20
2023-03-22T07:22:51.429Z,5.68
2023-03-22T07:25:21.931Z,5.20
2023-03-22T07:27:56.623Z,5.40
2023-03-22T07:30:25.316Z,5.78
2023-03-22T07:32:53.851Z,4.63
2023-03-22T07:35:26.249Z,4.68
2023-03-22T07:37:55.743Z,4.60
2023-03-22T07:40:29.977Z,4.72
2023-03-22T07:42:59.348Z,4.90
2023-03-22T07:45:50.494Z,3.92
2023-03-22T07:48:42.090Z,5.40
2023-03-22T07:51:40.621Z,5.97
2023-03-22T07:54:09.470Z,4.60
2023-03-22T07:56:38.293Z,5.18
2023-03-22T07:59:06.943Z,4.68
2023-03-22T08:01:35.759Z,4.35
2023-03-22T08:04:09.327Z,4.35
2023-03-22T08:09:29.727Z,3.40
2023-03-22T08:11:58.845Z,3.63
2023-03-22T08:14:36.340Z,2.50
2023-03-22T08:17:08.818Z,2.88
2023-03-22T08:19:37.370Z,2.22
2023-03-22T08:22:09.355Z,1.83
2023-03-22T08:27:35.360Z,2.08
2023-03-22T08:30:05.616Z,1.70
2023-03-22T08:32:35.726Z,1.55
2023-03-22T08:35:07.357Z,1.90
2023-03-22T08:37:37.007Z,1.50
2023-03-22T08:40:10.357Z,1.13
2023-03-22T08:42:53.148Z,1.33
2023-03-22T08:45:21.478Z,1.73
2023-03-22T08:47:56.338Z,1.88
2023-03-22T08:50:26.325Z,1.75
2023-03-22T08:53:06.727Z,1.70
2023-03-22T08:55:37.214Z,1.40
2023-03-22T08:58:16.321Z,1.40
2023-03-22T09:00:56.970Z,1.58
2023-03-22T09:03:45.734Z,1.08
2023-03-22T09:06:14.979Z,1.35
2023-03-22T09:08:46.340Z,1.30
2023-03-22T09:11:18.064Z,1.75
2023-03-22T09:13:49.092Z,1.30
2023-03-22T09:16:18.592Z,1.13
2023-03-22T09:18:48.452Z,1.83
2023-03-22T09:21:19.825Z,1.73
2023-03-22T09:23:54.789Z,1.20
2023-03-22T09:26:29.290Z,0.93
2023-03-22T09:28:58.172Z,0.65
2023-03-22T09:31:26.844Z,1.10
2023-03-22T09:34:08.260Z,0.75
2023-03-22T09:36:37.263Z,0.85
2023-03-22T09:39:09.899Z,0.60
2023-03-22T09:41:45.722Z,0.70
2023-03-22T09:44:22.255Z,0.70
2023-03-22T09:46:56.144Z,0.63
2023-03-22T09:49:30.456Z,1.00
2023-03-22T09:51:59.578Z,0.63
2023-03-22T09:54:34.575Z,0.77
2023-03-22T09:57:09.501Z,0.90
2023-03-22T09:59:47.344Z,1.05
2023-03-22T10:02:44.737Z,0.65
2023-03-22T10:05:22.348Z,0.90
2023-03-22T10:08:32.729Z,1.25
2023-03-22T10:11:02.782Z,0.82
2023-03-22T10:13:37.821Z,0.73
2023-03-22T10:16:12.014Z,0.80
2023-03-22T10:18:47.239Z,0.60
2023-03-22T10:21:18.831Z,0.52
2023-03-22T10:23:53.454Z,0.52
2023-03-22T10:26:29.401Z,0.40
2023-03-22T10:29:04.139Z,0.30
2023-03-22T10:31:34.853Z,0.52
2023-03-22T10:34:07.221Z,0.57
2023-03-22T10:36:39.750Z,0.50
2023-03-22T10:39:18.066Z,0.30
2023-03-22T10:41:49.411Z,0.30
2023-03-22T10:44:20.345Z,0.35
2023-03-22T10:46:52.115Z,0.43
2023-03-22T10:49:27.081Z,0.60
2023-03-22T10:52:01.352Z,0.50
2023-03-22T10:54:29.938Z,0.50
2023-03-22T10:56:59.485Z,0.50
2023-03-22T10:59:48.566Z,0.80
2023-03-22T11:02:23.310Z,0.40
2023-03-22T11:07:35.937Z,0.30
2023-03-22T11:10:24.727Z,0.50
2023-03-22T11:12:58.002Z,0.43
2023-03-22T11:15:31.074Z,0.65
2023-03-22T11:18:03.339Z,0.52
2023-03-22T11:20:33.940Z,0.70
2023-03-22T11:23:06.857Z,0.50
2023-03-22T11:25:38.988Z,0.55
2023-03-22T11:28:19.087Z,0.50
2023-03-22T11:31:03.861Z,0.43
2023-03-22T11:33:33.881Z,0.30
2023-03-22T11:36:05.507Z,0.30
2023-03-22T11:38:38.882Z,0.45
2023-03-22T11:41:23.128Z,0.30
2023-03-22T11:43:56.661Z,0.50
2023-03-22T11:46:25.636Z,0.38
2023-03-22T11:49:01.158Z,0.45
2023-03-22T11:51:35.032Z,0.40
2023-03-22T11:54:11.710Z,0.40
2023-03-22T11:56:46.021Z,0.20
2023-03-22T11:59:18.277Z,0.50
2023-03-22T12:01:51.811Z,0.30
2023-03-22T12:04:26.989Z,0.60
2023-03-22T12:07:00.496Z,0.30
2023-03-22T12:09:40.714Z,0.40
2023-03-22T12:12:17.860Z,0.40
2023-03-22T12:14:54.735Z,0.60
2023-03-22T12:17:36.545Z,0.47
2023-03-22T12:20:17.519Z,0.45
2023-03-22T12:22:52.683Z,0.35
2023-03-22T12:25:23.870Z,0.45
2023-03-22T12:27:57.326Z,0.60
2023-03-22T12:30:31.262Z,0.65
2023-03-22T12:33:06.770Z,0.40
2023-03-22T12:35:39.982Z,0.35
2023-03-22T12:38:29.594Z,0.20
2023-03-22T12:41:03.140Z,0.40
2023-03-22T12:43:47.858Z,0.80
2023-03-22T12:46:23.757Z,0.32
2023-03-22T12:48:57.146Z,0.40
2023-03-22T12:51:25.689Z,0.52
2023-03-22T12:53:57.084Z,0.40
2023-03-22T12:56:30.659Z,0.30
2023-03-22T12:59:04.397Z,0.50
2023-03-22T13:01:40.638Z,0.37
2023-03-22T13:04:32.583Z,0.40
2023-03-22T13:07:16.520Z,0.57
2023-03-22T13:09:46.947Z,0.63
2023-03-22T13:12:34.801Z,0.47
2023-03-22T13:15:41.283Z,0.43
2023-03-22T13:18:58.194Z,0.55
2023-03-22T13:21:30.313Z,0.68
2023-03-22T13:24:02.582Z,0.70
2023-03-22T13:26:39.486Z,0.40
2023-03-22T13:29:17.342Z,0.50
2023-03-22T13:31:54.599Z,0.40
2023-03-22T13:34:34.258Z,0.47
2023-03-22T13:37:03.644Z,0.32
2023-03-22T13:39:35.959Z,0.60
2023-03-22T13:42:14.442Z,0.52
2023-03-22T13:44:46.011Z,0.88
2023-03-22T13:47:37.390Z,0.40
2023-03-22T13:50:14.657Z,0.63
2023-03-22T13:52:47.418Z,0.50
2023-03-22T13:55:42.124Z,0.60
2023-03-22T13:58:12.983Z,0.80
2023-03-22T14:00:50.598Z,0.50
2023-03-22T14:03:29.718Z,0.40
2023-03-22T14:06:11.835Z,0.70
2023-03-22T14:08:44.463Z,0.50
2023-03-22T14:11:24.945Z,0.47
2023-03-22T14:14:00.356Z,0.40
2023-03-22T14:16:41.846Z,0.60
2023-03-22T14:19:16.834Z,0.43
